createdAt,value
2022-08-25T00:00:24.477Z,522.00
2022-08-25T00:00:54.478Z,522.00
2022-08-25T00:01:24.683Z,523.00
2022-08-25T00:01:54.588Z,523.00
2022-08-25T00:02:24.613Z,524.00
2022-08-25T00:02:55.648Z,524.00
2022-08-25T00:03:24.723Z,525.00
2022-08-25T00:03:54.832Z,524.00
2022-08-25T00:04:24.866Z,525.00
2022-08-25T00:04:54.973Z,523.00
2022-08-25T00:05:25.077Z,522.00
2022-08-25T00:05:55.209Z,520.00
2022-08-25T00:06:25.199Z,522.00
2022-08-25T00:06:58.294Z,522.00
2022-08-25T00:07:25.306Z,522.00
2022-08-25T00:07:55.415Z,522.00
2022-08-25T00:08:25.518Z,521.00
2022-08-25T00:08:55.626Z,521.00
2022-08-25T00:09:25.736Z,522.00
2022-08-25T00:09:55.847Z,523.00
2022-08-25T00:10:25.953Z,522.00
2022-08-25T00:11:03.618Z,521.00
2022-08-25T00:11:26.076Z,521.00
2022-08-25T00:11:56.186Z,521.00
2022-08-25T00:12:26.294Z,523.00
2022-08-25T00:12:56.402Z,524.00
2022-08-25T00:13:26.512Z,524.00
2022-08-25T00:13:56.541Z,522.00
2022-08-25T00:14:26.650Z,523.00
2022-08-25T00:14:56.754Z,522.00
2022-08-25T00:15:26.889Z,522.00
2022-08-25T00:15:56.910Z,520.00
2022-08-25T00:16:26.880Z,519.00
2022-08-25T00:16:56.989Z,518.00
2022-08-25T00:17:27.100Z,518.00
2022-08-25T00:17:57.210Z,518.00
2022-08-25T00:18:27.318Z,519.00
2022-08-25T00:18:57.392Z,518.00
2022-08-25T00:19:27.462Z,519.00
2022-08-25T00:19:57.556Z,519.00
2022-08-25T00:20:27.627Z,520.00
2022-08-25T00:20:57.696Z,520.00
2022-08-25T00:21:27.771Z,519.00
2022-08-25T00:21:57.853Z,518.00
2022-08-25T00:22:27.925Z,516.00
2022-08-25T00:22:57.997Z,515.00
2022-08-25T00:23:28.065Z,515.00
2022-08-25T00:23:58.137Z,514.00
2022-08-25T00:24:28.205Z,515.00
2022-08-25T00:24:58.272Z,517.00
2022-08-25T00:25:28.337Z,520.00
2022-08-25T00:25:58.372Z,522.00
2022-08-25T00:26:28.450Z,523.00
2022-08-25T00:26:58.525Z,524.00
2022-08-25T00:27:28.600Z,524.00
2022-08-25T00:27:58.666Z,526.00
2022-08-25T00:28:28.745Z,524.00
2022-08-25T00:29:01.839Z,524.00
2022-08-25T00:29:28.943Z,525.00
2022-08-25T00:29:59.053Z,525.00
2022-08-25T00:30:29.160Z,525.00
2022-08-25T00:30:59.289Z,524.00
2022-08-25T00:31:37.660Z,522.00
2022-08-25T00:31:59.273Z,522.00
2022-08-25T00:32:29.386Z,524.00
2022-08-25T00:32:59.495Z,524.00
2022-08-25T00:33:29.602Z,523.00
2022-08-25T00:33:59.709Z,523.00
2022-08-25T00:34:29.823Z,523.00
2022-08-25T00:34:59.928Z,526.00
2022-08-25T00:35:30.033Z,528.00
2022-08-25T00:36:00.140Z,526.00
2022-08-25T00:36:30.248Z,526.00
2022-08-25T00:37:00.355Z,527.00
2022-08-25T00:37:30.468Z,527.00
2022-08-25T00:38:00.649Z,526.00
2022-08-25T00:38:30.628Z,526.00
2022-08-25T00:39:00.730Z,526.00
2022-08-25T00:39:30.844Z,525.00
2022-08-25T00:40:00.972Z,524.00
2022-08-25T00:40:31.161Z,522.00
2022-08-25T00:41:01.153Z,520.00
2022-08-25T00:41:31.262Z,521.00
2022-08-25T00:42:01.379Z,522.00
2022-08-25T00:42:31.484Z,521.00
2022-08-25T00:43:01.590Z,520.00
2022-08-25T00:43:31.704Z,521.00
2022-08-25T00:44:01.815Z,521.00
2022-08-25T00:44:31.915Z,519.00
2022-08-25T00:45:02.373Z,520.00
2022-08-25T00:45:32.077Z,519.00
2022-08-25T00:46:02.278Z,520.00
2022-08-25T00:46:32.267Z,519.00
2022-08-25T00:47:02.253Z,520.00
2022-08-25T00:47:32.360Z,519.00
2022-08-25T00:48:02.616Z,520.00
2022-08-25T00:48:32.521Z,520.00
2022-08-25T00:49:02.624Z,522.00
2022-08-25T00:49:32.726Z,522.00
2022-08-25T00:50:02.828Z,523.00
2022-08-25T00:50:32.846Z,522.00
2022-08-25T00:51:02.900Z,521.00
2022-08-25T00:51:33.019Z,522.00
2022-08-25T00:52:03.124Z,522.00
2022-08-25T00:52:33.236Z,522.00
2022-08-25T00:53:03.349Z,524.00
2022-08-25T00:53:33.452Z,523.00
2022-08-25T00:54:03.559Z,522.00
2022-08-25T00:54:33.664Z,521.00
2022-08-25T00:55:07.753Z,519.00
2022-08-25T00:55:33.801Z,519.00
2022-08-25T00:56:03.909Z,517.00
2022-08-25T00:56:34.020Z,517.00
2022-08-25T00:57:04.124Z,515.00
2022-08-25T00:57:35.117Z,514.00
2022-08-25T00:58:04.384Z,516.00
2022-08-25T00:58:34.321Z,517.00
2022-08-25T00:59:04.427Z,519.00
2022-08-25T00:59:34.531Z,521.00
2022-08-25T01:00:04.643Z,520.00
2022-08-25T01:00:34.749Z,519.00
2022-08-25T01:01:04.900Z,519.00
2022-08-25T01:01:34.943Z,519.00
2022-08-25T01:02:04.931Z,517.00
2022-08-25T01:02:35.000Z,516.00
2022-08-25T01:03:05.106Z,516.00
2022-08-25T01:03:35.696Z,514.00
2022-08-25T01:04:05.124Z,515.00
2022-08-25T01:04:35.238Z,515.00
2022-08-25T01:05:05.346Z,514.00
2022-08-25T01:05:35.454Z,513.00
2022-08-25T01:06:05.559Z,511.00
2022-08-25T01:06:35.668Z,511.00
2022-08-25T01:07:05.778Z,510.00
2022-08-25T01:07:35.881Z,510.00
2022-08-25T01:08:06.722Z,511.00
2022-08-25T01:08:35.985Z,511.00
2022-08-25T01:09:06.090Z,512.00
2022-08-25T01:09:36.196Z,513.00
2022-08-25T01:10:06.304Z,514.00
2022-08-25T01:10:36.414Z,515.00
2022-08-25T01:11:06.520Z,516.00
2022-08-25T01:11:36.628Z,517.00
2022-08-25T01:12:06.735Z,517.00
2022-08-25T01:12:36.838Z,517.00
2022-08-25T01:13:06.944Z,517.00
2022-08-25T01:13:36.947Z,518.00
2022-08-25T01:14:07.056Z,519.00
2022-08-25T01:14:37.162Z,518.00
2022-08-25T01:15:07.272Z,518.00
2022-08-25T01:15:37.379Z,517.00
2022-08-25T01:16:07.637Z,518.00
2022-08-25T01:16:37.522Z,517.00
2022-08-25T01:17:07.639Z,516.00
2022-08-25T01:17:37.744Z,516.00
2022-08-25T01:18:07.852Z,517.00
2022-08-25T01:18:37.949Z,517.00
2022-08-25T01:19:08.015Z,518.00
2022-08-25T01:19:38.086Z,519.00
2022-08-25T01:20:08.156Z,521.00
2022-08-25T01:20:38.226Z,521.00
2022-08-25T01:21:08.290Z,523.00
2022-08-25T01:21:38.358Z,522.00
2022-08-25T01:22:08.440Z,520.00
2022-08-25T01:22:38.509Z,519.00
2022-08-25T01:23:08.580Z,517.00
2022-08-25T01:23:38.656Z,519.00
2022-08-25T01:24:08.726Z,520.00
2022-08-25T01:24:38.794Z,521.00
2022-08-25T01:25:08.862Z,518.00
2022-08-25T01:25:38.935Z,518.00
2022-08-25T01:26:09.010Z,517.00
2022-08-25T01:26:39.080Z,517.00
2022-08-25T01:27:09.150Z,517.00
2022-08-25T01:27:39.221Z,516.00
2022-08-25T01:28:09.290Z,515.00
2022-08-25T01:28:39.376Z,516.00
2022-08-25T01:29:09.481Z,517.00
2022-08-25T01:29:39.586Z,517.00
2022-08-25T01:30:09.701Z,518.00
2022-08-25T01:30:39.887Z,518.00
2022-08-25T01:31:23.673Z,519.00
2022-08-25T01:31:39.917Z,520.00
2022-08-25T01:32:09.873Z,520.00
2022-08-25T01:32:39.975Z,519.00
2022-08-25T01:33:10.077Z,519.00
2022-08-25T01:33:40.187Z,517.00
2022-08-25T01:34:10.298Z,518.00
2022-08-25T01:34:40.405Z,519.00
2022-08-25T01:35:10.520Z,519.00
2022-08-25T01:35:40.627Z,521.00
2022-08-25T01:36:10.730Z,522.00
2022-08-25T01:36:40.900Z,522.00
2022-08-25T01:37:13.375Z,521.00
2022-08-25T01:37:40.874Z,520.00
2022-08-25T01:38:10.987Z,519.00
2022-08-25T01:38:41.091Z,520.00
2022-08-25T01:39:11.195Z,521.00
2022-08-25T01:39:41.305Z,521.00
2022-08-25T01:40:11.504Z,522.00
2022-08-25T01:40:41.443Z,523.00
2022-08-25T01:41:11.553Z,523.00
2022-08-25T01:41:41.685Z,521.00
2022-08-25T01:42:11.676Z,520.00
2022-08-25T01:42:41.785Z,517.00
2022-08-25T01:43:11.885Z,517.00
2022-08-25T01:43:42.003Z,516.00
2022-08-25T01:44:14.153Z,515.00
2022-08-25T01:44:42.185Z,516.00
2022-08-25T01:45:12.295Z,518.00
2022-08-25T01:45:42.433Z,518.00
2022-08-25T01:46:12.548Z,517.00
2022-08-25T01:46:42.564Z,518.00
2022-08-25T01:47:12.558Z,519.00
2022-08-25T01:47:42.668Z,520.00
2022-08-25T01:48:12.772Z,519.00
2022-08-25T01:48:42.883Z,517.00
2022-08-25T01:49:12.989Z,517.00
2022-08-25T01:49:43.093Z,518.00
2022-08-25T01:50:13.198Z,519.00
2022-08-25T01:50:43.300Z,519.00
2022-08-25T01:51:13.413Z,519.00
2022-08-25T01:51:43.535Z,519.00
2022-08-25T01:52:13.516Z,520.00
2022-08-25T01:52:43.617Z,520.00
2022-08-25T01:53:13.725Z,519.00
2022-08-25T01:53:43.832Z,519.00
2022-08-25T01:54:13.941Z,516.00
2022-08-25T01:54:44.046Z,516.00
2022-08-25T01:55:14.162Z,517.00
2022-08-25T01:55:44.263Z,514.00
2022-08-25T01:56:14.379Z,514.00
2022-08-25T01:56:44.505Z,514.00
2022-08-25T01:57:14.488Z,514.00
2022-08-25T01:57:44.599Z,512.00
2022-08-25T01:58:14.706Z,512.00
2022-08-25T01:58:44.812Z,513.00
2022-08-25T01:59:14.923Z,512.00
2022-08-25T01:59:44.934Z,514.00
2022-08-25T02:00:15.033Z,514.00
2022-08-25T02:00:45.142Z,514.00
2022-08-25T02:01:15.273Z,515.00
2022-08-25T02:01:45.378Z,514.00
2022-08-25T02:02:15.361Z,516.00
2022-08-25T02:02:45.467Z,516.00
2022-08-25T02:03:15.808Z,516.00
2022-08-25T02:03:45.587Z,516.00
2022-08-25T02:04:15.676Z,514.00
2022-08-25T02:04:45.743Z,513.00
2022-08-25T02:05:16.597Z,514.00
2022-08-25T02:05:45.879Z,514.00
2022-08-25T02:06:15.962Z,513.00
2022-08-25T02:06:46.088Z,516.00
2022-08-25T02:07:16.071Z,516.00
2022-08-25T02:07:46.178Z,516.00
2022-08-25T02:08:16.280Z,515.00
2022-08-25T02:08:46.392Z,515.00
2022-08-25T02:09:16.431Z,514.00
2022-08-25T02:09:46.547Z,514.00
2022-08-25T02:10:16.646Z,513.00
2022-08-25T02:10:46.755Z,514.00
2022-08-25T02:11:16.861Z,515.00
2022-08-25T02:11:46.983Z,514.00
2022-08-25T02:12:16.965Z,515.00
2022-08-25T02:12:47.067Z,515.00
2022-08-25T02:13:17.172Z,514.00
2022-08-25T02:13:47.276Z,514.00
2022-08-25T02:14:17.382Z,516.00
2022-08-25T02:14:47.494Z,516.00
2022-08-25T02:15:17.596Z,516.00
2022-08-25T02:15:47.704Z,517.00
2022-08-25T02:16:17.861Z,518.00
2022-08-25T02:16:47.891Z,518.00
2022-08-25T02:17:17.879Z,518.00
2022-08-25T02:17:47.988Z,518.00
2022-08-25T02:18:18.092Z,517.00
2022-08-25T02:18:48.201Z,517.00
2022-08-25T02:19:18.307Z,516.00
2022-08-25T02:19:48.412Z,517.00
2022-08-25T02:20:18.525Z,518.00
2022-08-25T02:20:48.630Z,517.00
2022-08-25T02:21:18.737Z,519.00
2022-08-25T02:21:48.851Z,518.00
2022-08-25T02:22:18.953Z,518.00
2022-08-25T02:22:49.061Z,519.00
2022-08-25T02:23:19.070Z,519.00
2022-08-25T02:23:49.179Z,517.00
2022-08-25T02:24:19.290Z,518.00
2022-08-25T02:24:49.398Z,518.00
2022-08-25T02:25:19.500Z,518.00
2022-08-25T02:25:49.607Z,519.00
2022-08-25T02:26:19.718Z,519.00
2022-08-25T02:26:49.821Z,518.00
2022-08-25T02:27:19.928Z,517.00
2022-08-25T02:27:50.048Z,517.00
2022-08-25T02:28:20.149Z,518.00
2022-08-25T02:28:50.160Z,517.00
2022-08-25T02:29:20.176Z,517.00
2022-08-25T02:29:50.200Z,516.00
2022-08-25T02:30:20.223Z,516.00
2022-08-25T02:30:50.304Z,514.00
2022-08-25T02:31:20.317Z,513.00
2022-08-25T02:31:50.338Z,513.00
2022-08-25T02:32:20.362Z,513.00
2022-08-25T02:32:50.383Z,513.00
2022-08-25T02:33:20.403Z,514.00
2022-08-25T02:33:50.425Z,513.00
2022-08-25T02:34:20.442Z,514.00
2022-08-25T02:34:50.464Z,513.00
2022-08-25T02:35:20.483Z,512.00
2022-08-25T02:35:50.507Z,512.00
2022-08-25T02:36:20.529Z,512.00
2022-08-25T02:36:50.548Z,514.00
2022-08-25T02:37:20.572Z,514.00
2022-08-25T02:37:50.596Z,516.00
2022-08-25T02:38:20.659Z,517.00
2022-08-25T02:38:50.678Z,517.00
2022-08-25T02:39:20.696Z,516.00
2022-08-25T02:39:50.764Z,515.00
2022-08-25T02:40:20.788Z,516.00
2022-08-25T02:40:50.792Z,514.00
2022-08-25T02:41:20.818Z,514.00
2022-08-25T02:41:50.843Z,516.00
2022-08-25T02:42:20.865Z,515.00
2022-08-25T02:42:50.882Z,514.00
2022-08-25T02:43:20.901Z,513.00
2022-08-25T02:43:50.920Z,513.00
2022-08-25T02:44:20.938Z,513.00
2022-08-25T02:44:50.958Z,512.00
2022-08-25T02:45:20.985Z,512.00
2022-08-25T02:45:51.069Z,510.00
2022-08-25T02:46:21.195Z,510.00
2022-08-25T02:46:51.087Z,510.00
2022-08-25T02:47:25.689Z,511.00
2022-08-25T02:47:51.144Z,511.00
2022-08-25T02:48:21.162Z,511.00
2022-08-25T02:48:51.183Z,509.00
2022-08-25T02:49:21.200Z,508.00
2022-08-25T02:49:51.217Z,510.00
2022-08-25T02:50:21.234Z,509.00
2022-08-25T02:50:51.249Z,511.00
2022-08-25T02:51:21.295Z,511.00
2022-08-25T02:51:51.315Z,512.00
2022-08-25T02:52:21.347Z,512.00
2022-08-25T02:52:51.365Z,513.00
2022-08-25T02:53:21.381Z,512.00
2022-08-25T02:53:51.397Z,511.00
2022-08-25T02:54:21.414Z,510.00
2022-08-25T02:54:51.504Z,511.00
2022-08-25T02:55:21.523Z,510.00
2022-08-25T02:55:51.541Z,508.00
2022-08-25T02:56:21.563Z,510.00
2022-08-25T02:56:51.582Z,511.00
2022-08-25T02:57:21.620Z,511.00
2022-08-25T02:57:51.635Z,511.00
2022-08-25T02:58:21.655Z,511.00
2022-08-25T02:58:51.674Z,509.00
2022-08-25T02:59:21.693Z,510.00
2022-08-25T02:59:51.711Z,509.00
2022-08-25T03:00:21.731Z,507.00
2022-08-25T03:00:51.931Z,508.00
2022-08-25T03:01:22.137Z,508.00
2022-08-25T03:01:51.988Z,508.00
2022-08-25T03:02:22.049Z,508.00
2022-08-25T03:02:52.069Z,508.00
2022-08-25T03:03:22.088Z,508.00
2022-08-25T03:03:52.193Z,507.00
2022-08-25T03:04:22.114Z,508.00
2022-08-25T03:04:52.161Z,509.00
2022-08-25T03:05:22.164Z,508.00
2022-08-25T03:05:52.179Z,507.00
2022-08-25T03:06:22.211Z,507.00
2022-08-25T03:06:52.226Z,506.00
2022-08-25T03:07:22.244Z,507.00
2022-08-25T03:07:52.249Z,506.00
2022-08-25T03:08:22.245Z,506.00
2022-08-25T03:08:52.264Z,508.00
2022-08-25T03:09:22.281Z,508.00
2022-08-25T03:09:52.301Z,509.00
2022-08-25T03:10:22.319Z,509.00
2022-08-25T03:10:52.334Z,511.00
2022-08-25T03:11:22.361Z,512.00
2022-08-25T03:11:52.380Z,512.00
2022-08-25T03:12:22.399Z,512.00
2022-08-25T03:12:52.423Z,511.00
2022-08-25T03:13:22.440Z,510.00
2022-08-25T03:13:52.465Z,510.00
2022-08-25T03:14:22.477Z,510.00
2022-08-25T03:14:52.493Z,509.00
2022-08-25T03:15:22.519Z,509.00
2022-08-25T03:15:52.533Z,508.00
2022-08-25T03:16:22.707Z,508.00
2022-08-25T03:16:52.651Z,509.00
2022-08-25T03:17:22.652Z,509.00
2022-08-25T03:17:52.667Z,509.00
2022-08-25T03:18:22.679Z,508.00
2022-08-25T03:18:52.785Z,506.00
2022-08-25T03:19:22.893Z,507.00
2022-08-25T03:19:53.000Z,507.00
2022-08-25T03:20:23.103Z,508.00
2022-08-25T03:20:53.220Z,508.00
2022-08-25T03:21:23.332Z,509.00
2022-08-25T03:21:53.439Z,509.00
2022-08-25T03:22:23.549Z,509.00
2022-08-25T03:22:53.656Z,510.00
2022-08-25T03:23:23.763Z,510.00
2022-08-25T03:23:53.867Z,508.00
2022-08-25T03:24:23.969Z,508.00
2022-08-25T03:24:54.076Z,510.00
2022-08-25T03:25:24.402Z,510.00
2022-08-25T03:25:54.255Z,510.00
2022-08-25T03:26:24.255Z,509.00
2022-08-25T03:26:54.360Z,510.00
2022-08-25T03:27:24.469Z,510.00
2022-08-25T03:27:54.574Z,509.00
2022-08-25T03:28:25.007Z,510.00
2022-08-25T03:28:54.713Z,509.00
2022-08-25T03:29:24.736Z,508.00
2022-08-25T03:29:54.752Z,508.00
2022-08-25T03:30:24.766Z,508.00
2022-08-25T03:30:55.838Z,507.00
2022-08-25T03:31:24.864Z,506.00
2022-08-25T03:31:54.954Z,504.00
2022-08-25T03:32:24.862Z,503.00
2022-08-25T03:32:54.882Z,502.00
2022-08-25T03:33:24.901Z,503.00
2022-08-25T03:33:54.921Z,505.00
2022-08-25T03:34:24.935Z,506.00
2022-08-25T03:34:54.952Z,506.00
2022-08-25T03:35:24.976Z,507.00
2022-08-25T03:35:54.997Z,509.00
2022-08-25T03:36:25.020Z,508.00
2022-08-25T03:36:55.052Z,508.00
2022-08-25T03:37:25.072Z,508.00
2022-08-25T03:37:55.091Z,506.00
2022-08-25T03:38:25.117Z,507.00
2022-08-25T03:38:55.137Z,507.00
2022-08-25T03:39:25.158Z,507.00
2022-08-25T03:39:55.238Z,507.00
2022-08-25T03:40:25.336Z,509.00
2022-08-25T03:40:55.287Z,510.00
2022-08-25T03:41:25.656Z,510.00
2022-08-25T03:41:55.303Z,512.00
2022-08-25T03:42:25.326Z,514.00
2022-08-25T03:42:55.350Z,513.00
2022-08-25T03:43:25.364Z,513.00
2022-08-25T03:43:55.393Z,514.00
2022-08-25T03:44:25.417Z,514.00
2022-08-25T03:44:55.438Z,514.00
2022-08-25T03:45:25.556Z,513.00
2022-08-25T03:45:55.611Z,513.00
2022-08-25T03:46:25.636Z,514.00
2022-08-25T03:46:55.662Z,514.00
2022-08-25T03:47:25.683Z,516.00
2022-08-25T03:47:55.711Z,515.00
2022-08-25T03:48:25.720Z,515.00
2022-08-25T03:48:55.738Z,515.00
2022-08-25T03:49:25.755Z,517.00
2022-08-25T03:49:55.773Z,515.00
2022-08-25T03:50:25.791Z,515.00
2022-08-25T03:50:55.810Z,516.00
2022-08-25T03:51:25.825Z,516.00
2022-08-25T03:51:55.842Z,517.00
2022-08-25T03:52:25.859Z,517.00
2022-08-25T03:52:55.885Z,517.00
2022-08-25T03:53:25.904Z,517.00
2022-08-25T03:53:55.920Z,517.00
2022-08-25T03:54:25.951Z,515.00
2022-08-25T03:54:55.976Z,513.00
2022-08-25T03:55:25.982Z,512.00
2022-08-25T03:55:55.997Z,511.00
2022-08-25T03:56:26.015Z,512.00
2022-08-25T03:56:56.033Z,512.00
2022-08-25T03:57:26.088Z,513.00
2022-08-25T03:57:56.119Z,514.00
2022-08-25T03:58:26.136Z,512.00
2022-08-25T03:58:56.157Z,512.00
2022-08-25T03:59:26.176Z,511.00
2022-08-25T03:59:56.193Z,511.00
2022-08-25T04:00:26.302Z,510.00
2022-08-25T04:00:56.349Z,509.00
2022-08-25T04:01:26.466Z,509.00
2022-08-25T04:01:56.418Z,509.00
2022-08-25T04:02:26.504Z,508.00
2022-08-25T04:02:56.490Z,507.00
2022-08-25T04:03:26.502Z,509.00
2022-08-25T04:03:56.522Z,509.00
2022-08-25T04:04:26.541Z,509.00
2022-08-25T04:04:56.561Z,509.00
2022-08-25T04:05:26.768Z,510.00
2022-08-25T04:05:56.595Z,508.00
2022-08-25T04:06:26.625Z,508.00
2022-08-25T04:06:56.644Z,509.00
2022-08-25T04:07:26.682Z,508.00
2022-08-25T04:07:56.701Z,508.00
2022-08-25T04:08:26.715Z,506.00
2022-08-25T04:08:56.733Z,506.00
2022-08-25T04:09:26.762Z,506.00
2022-08-25T04:09:56.781Z,504.00
2022-08-25T04:10:26.798Z,503.00
2022-08-25T04:10:56.823Z,504.00
2022-08-25T04:11:26.842Z,505.00
2022-08-25T04:11:56.857Z,504.00
2022-08-25T04:12:26.941Z,504.00
2022-08-25T04:12:56.975Z,503.00
2022-08-25T04:13:26.993Z,503.00
2022-08-25T04:13:57.016Z,502.00
2022-08-25T04:14:27.014Z,500.00
2022-08-25T04:14:57.063Z,499.00
2022-08-25T04:15:28.473Z,498.00
2022-08-25T04:15:57.168Z,499.00
2022-08-25T04:16:27.225Z,500.00
2022-08-25T04:16:57.346Z,499.00
2022-08-25T04:17:27.383Z,498.00
2022-08-25T04:17:57.403Z,497.00
2022-08-25T04:18:27.418Z,497.00
2022-08-25T04:18:57.519Z,496.00
2022-08-25T04:19:27.626Z,497.00
2022-08-25T04:19:57.732Z,498.00
2022-08-25T04:20:27.837Z,497.00
2022-08-25T04:20:57.946Z,496.00
2022-08-25T04:21:28.068Z,498.00
2022-08-25T04:21:58.173Z,500.00
2022-08-25T04:22:29.890Z,500.00
2022-08-25T04:22:58.314Z,503.00
2022-08-25T04:23:28.428Z,503.00
2022-08-25T04:23:58.532Z,502.00
2022-08-25T04:24:28.641Z,501.00
2022-08-25T04:24:58.748Z,501.00
2022-08-25T04:25:28.860Z,502.00
2022-08-25T04:25:58.969Z,502.00
2022-08-25T04:26:29.093Z,502.00
2022-08-25T04:26:59.081Z,503.00
2022-08-25T04:27:29.192Z,504.00
2022-08-25T04:27:59.445Z,504.00
2022-08-25T04:28:29.330Z,503.00
2022-08-25T04:28:59.342Z,503.00
2022-08-25T04:29:29.358Z,501.00
2022-08-25T04:29:59.379Z,500.00
2022-08-25T04:30:29.418Z,500.00
2022-08-25T04:30:59.473Z,499.00
2022-08-25T04:31:29.541Z,499.00
2022-08-25T04:31:59.650Z,498.00
2022-08-25T04:32:29.673Z,496.00
2022-08-25T04:32:59.696Z,495.00
2022-08-25T04:33:29.723Z,494.00
2022-08-25T04:33:59.738Z,492.00
2022-08-25T04:34:31.430Z,492.00
2022-08-25T04:34:59.834Z,491.00
2022-08-25T04:35:29.855Z,491.00
2022-08-25T04:35:59.867Z,490.00
2022-08-25T04:36:29.891Z,490.00
2022-08-25T04:36:59.911Z,492.00
2022-08-25T04:37:29.926Z,492.00
2022-08-25T04:38:00.026Z,494.00
2022-08-25T04:38:30.050Z,493.00
2022-08-25T04:39:00.080Z,492.00
2022-08-25T04:39:30.088Z,490.00
2022-08-25T04:40:00.308Z,489.00
2022-08-25T04:40:30.166Z,492.00
2022-08-25T04:41:00.185Z,492.00
2022-08-25T04:41:30.204Z,492.00
2022-08-25T04:42:00.227Z,492.00
2022-08-25T04:42:30.247Z,492.00
2022-08-25T04:43:00.255Z,492.00
2022-08-25T04:43:30.270Z,489.00
2022-08-25T04:44:00.342Z,491.00
2022-08-25T04:44:30.281Z,491.00
2022-08-25T04:45:00.301Z,492.00
2022-08-25T04:45:30.379Z,490.00
2022-08-25T04:46:00.513Z,492.00
2022-08-25T04:46:30.442Z,493.00
2022-08-25T04:47:00.489Z,493.00
2022-08-25T04:47:30.505Z,493.00
2022-08-25T04:48:00.527Z,494.00
2022-08-25T04:48:30.550Z,495.00
2022-08-25T04:49:00.569Z,494.00
2022-08-25T04:49:30.590Z,494.00
2022-08-25T04:50:00.608Z,495.00
2022-08-25T04:50:30.630Z,495.00
2022-08-25T04:51:00.660Z,495.00
2022-08-25T04:51:30.678Z,495.00
2022-08-25T04:52:00.690Z,496.00
2022-08-25T04:52:30.716Z,496.00
2022-08-25T04:53:00.860Z,499.00
2022-08-25T04:53:30.753Z,499.00
2022-08-25T04:54:00.774Z,501.00
2022-08-25T04:54:32.524Z,502.00
2022-08-25T04:55:00.826Z,498.00
2022-08-25T04:55:30.845Z,499.00
2022-08-25T04:56:03.823Z,502.00
2022-08-25T04:56:30.951Z,504.00
2022-08-25T04:57:00.967Z,503.00
2022-08-25T04:57:30.984Z,503.00
2022-08-25T04:58:00.997Z,503.00
2022-08-25T04:58:31.022Z,500.00
2022-08-25T04:59:01.031Z,499.00
2022-08-25T04:59:31.049Z,500.00
2022-08-25T05:00:01.063Z,501.00
2022-08-25T05:00:31.080Z,501.00
2022-08-25T05:01:01.176Z,502.00
2022-08-25T05:01:31.193Z,504.00
2022-08-25T05:02:01.220Z,507.00
2022-08-25T05:02:31.239Z,505.00
2022-08-25T05:03:01.251Z,507.00
2022-08-25T05:03:31.269Z,504.00
2022-08-25T05:04:01.320Z,503.00
2022-08-25T05:04:31.483Z,505.00
2022-08-25T05:05:01.379Z,502.00
2022-08-25T05:05:31.399Z,503.00
2022-08-25T05:06:01.444Z,505.00
2022-08-25T05:06:31.467Z,507.00
2022-08-25T05:07:01.491Z,506.00
2022-08-25T05:07:31.506Z,507.00
2022-08-25T05:08:01.518Z,503.00
2022-08-25T05:08:31.538Z,500.00
2022-08-25T05:09:01.555Z,501.00
2022-08-25T05:09:32.676Z,502.00
2022-08-25T05:10:01.589Z,501.00
2022-08-25T05:10:31.611Z,502.00
2022-08-25T05:11:01.626Z,502.00
2022-08-25T05:11:31.671Z,502.00
2022-08-25T05:12:02.165Z,499.00
2022-08-25T05:12:33.032Z,518.00
2022-08-25T05:13:01.808Z,507.00
2022-08-25T05:13:31.914Z,505.00
2022-08-25T05:14:01.937Z,508.00
2022-08-25T05:14:32.053Z,502.00
2022-08-25T05:15:02.046Z,500.00
2022-08-25T05:15:32.065Z,497.00
2022-08-25T05:16:02.132Z,497.00
2022-08-25T05:16:32.105Z,497.00
2022-08-25T05:17:02.145Z,497.00
2022-08-25T05:17:32.151Z,498.00
2022-08-25T05:18:02.162Z,499.00
2022-08-25T05:18:32.170Z,481.00
2022-08-25T05:19:02.276Z,524.00
2022-08-25T05:19:32.382Z,503.00
2022-08-25T05:20:02.485Z,499.00
2022-08-25T05:20:32.606Z,496.00
2022-08-25T05:21:02.712Z,497.00
2022-08-25T05:21:32.828Z,494.00
2022-08-25T05:22:02.928Z,492.00
2022-08-25T05:22:33.037Z,492.00
2022-08-25T05:23:03.143Z,491.00
2022-08-25T05:23:33.260Z,490.00
2022-08-25T05:24:03.355Z,489.00
2022-08-25T05:24:33.463Z,490.00
2022-08-25T05:25:03.567Z,490.00
2022-08-25T05:25:33.700Z,490.00
2022-08-25T05:26:03.679Z,489.00
2022-08-25T05:26:33.797Z,491.00
2022-08-25T05:27:03.903Z,493.00
2022-08-25T05:27:34.010Z,491.00
2022-08-25T05:28:04.252Z,512.00
2022-08-25T05:28:34.230Z,514.00
2022-08-25T05:29:04.248Z,511.00
2022-08-25T05:29:34.266Z,507.00
2022-08-25T05:30:04.281Z,488.00
2022-08-25T05:30:34.303Z,491.00
2022-08-25T05:31:04.392Z,493.00
2022-08-25T05:31:37.417Z,497.00
2022-08-25T05:32:04.521Z,500.00
2022-08-25T05:32:34.530Z,500.00
2022-08-25T05:33:04.583Z,503.00
2022-08-25T05:33:34.586Z,504.00
2022-08-25T05:34:04.600Z,503.00
2022-08-25T05:34:34.620Z,503.00
2022-08-25T05:35:04.629Z,503.00
2022-08-25T05:35:34.649Z,502.00
2022-08-25T05:36:04.666Z,499.00
2022-08-25T05:36:34.694Z,496.00
2022-08-25T05:37:05.477Z,502.00
2022-08-25T05:37:34.829Z,495.00
2022-08-25T05:38:05.051Z,494.00
2022-08-25T05:38:34.865Z,494.00
2022-08-25T05:39:04.886Z,492.00
2022-08-25T05:39:34.903Z,489.00
2022-08-25T05:40:04.958Z,488.00
2022-08-25T05:40:34.976Z,486.00
2022-08-25T05:41:05.051Z,487.00
2022-08-25T05:41:35.085Z,484.00
2022-08-25T05:42:05.104Z,485.00
2022-08-25T05:42:35.121Z,486.00
2022-08-25T05:43:05.138Z,486.00
2022-08-25T05:43:35.158Z,487.00
2022-08-25T05:44:05.191Z,485.00
2022-08-25T05:44:35.197Z,487.00
2022-08-25T05:45:05.215Z,487.00
2022-08-25T05:45:35.283Z,489.00
2022-08-25T05:46:05.369Z,491.00
2022-08-25T05:46:35.402Z,493.00
2022-08-25T05:47:05.419Z,493.00
2022-08-25T05:47:35.435Z,494.00
2022-08-25T05:48:05.621Z,494.00
2022-08-25T05:48:35.452Z,497.00
2022-08-25T05:49:05.463Z,498.00
2022-08-25T05:49:35.479Z,500.00
2022-08-25T05:50:05.497Z,501.00
2022-08-25T05:50:35.512Z,490.00
2022-08-25T05:51:05.538Z,471.00
2022-08-25T05:51:35.577Z,486.00
2022-08-25T05:52:05.597Z,494.00
2022-08-25T05:52:35.617Z,493.00
2022-08-25T05:53:05.633Z,494.00
2022-08-25T05:53:35.646Z,494.00
2022-08-25T05:54:05.658Z,493.00
2022-08-25T05:54:35.677Z,492.00
2022-08-25T05:55:05.693Z,491.00
2022-08-25T05:55:35.717Z,490.00
2022-08-25T05:56:05.728Z,489.00
2022-08-25T05:56:35.753Z,488.00
2022-08-25T05:57:05.773Z,487.00
2022-08-25T05:57:35.792Z,488.00
2022-08-25T05:58:05.934Z,507.00
2022-08-25T05:58:35.848Z,510.00
2022-08-25T05:59:09.293Z,497.00
2022-08-25T05:59:35.871Z,495.00
2022-08-25T06:00:05.885Z,496.00
2022-08-25T06:00:35.913Z,498.00
2022-08-25T06:01:05.984Z,496.00
2022-08-25T06:01:36.010Z,497.00
2022-08-25T06:02:06.071Z,498.00
2022-08-25T06:02:36.101Z,497.00
2022-08-25T06:03:06.129Z,496.00
2022-08-25T06:03:36.225Z,496.00
2022-08-25T06:04:06.356Z,497.00
2022-08-25T06:04:39.585Z,496.00
2022-08-25T06:05:06.310Z,497.00
2022-08-25T06:05:36.341Z,499.00
2022-08-25T06:06:06.365Z,496.00
2022-08-25T06:06:36.415Z,494.00
2022-08-25T06:07:06.434Z,492.00
2022-08-25T06:07:36.453Z,490.00
2022-08-25T06:08:06.617Z,483.00
2022-08-25T06:08:36.470Z,509.00
2022-08-25T06:09:06.486Z,501.00
2022-08-25T06:09:36.498Z,494.00
2022-08-25T06:10:06.559Z,489.00
2022-08-25T06:10:36.591Z,489.00
2022-08-25T06:11:06.611Z,487.00
2022-08-25T06:11:36.660Z,490.00
2022-08-25T06:12:06.679Z,490.00
2022-08-25T06:12:36.752Z,490.00
2022-08-25T06:13:06.765Z,486.00
2022-08-25T06:13:36.789Z,490.00
2022-08-25T06:14:06.818Z,498.00
2022-08-25T06:14:36.848Z,492.00
2022-08-25T06:15:06.918Z,483.00